• Join FlightAware (Why Join?)
  • Login
  • US Flag 
12:19PM EDT


 

Airport Tracker/Info


-or-


 

Live Flight TrackerFlight Track Log ✈ EJA804 ✈ 22-Apr-2013 ✈ KMIA - KHOU

Flight Track Log - Related Links

Times and Time Zones

All times are in EDT time to prevent confusion due to time zone crossing. See the EJA804 flight status page for this flight to view local times or setup timezone preferences in your user account.

Time Position Orientation Groundspeed Altitude Reporting Facility
EDT Latitude Longitude Course Direction KTS MPH feet Rate Location/Type
10:08AM 25.8003 -80.2700 80° East 162 186 1,000  Level Miami Center
10:09AM 25.8125 -80.1964 80° East 237 273 3,500 2,340 Climbing Miami Center
10:10AM 25.8286 -80.1300 75° East 237 273 6,100 1,680 Climbing Miami Center
10:11AM 25.9036 -80.1367 355° North 199 229 6,900 540 Climbing Miami Center
10:12AM 25.9653 -80.1844 325° Northwest 198 228 7,200 1,260 Climbing Miami Center
10:13AM 25.9864 -80.2661 286° West 213 245 9,500 2,340 Climbing Miami Center
10:14AM 26.0242 -80.3433 299° West 258 297 11,900 2,640 Climbing Miami Center
10:15AM 26.0681 -80.4325 299° West 282 325 14,800 2,460 Climbing Miami Center
10:16AM 26.1100 -80.5100 301° West 300 345 16,900 1,980 Climbing Miami Center
10:17AM 26.1794 -80.5678 323° Northwest 294 338 18,800 1,740 Climbing Miami Center
10:18AM 26.2369 -80.6136 324° Northwest 300 345 20,400 1,980 Climbing Miami Center
10:19AM 26.3206 -80.6833 323° Northwest 316 364 22,800 1,980 Climbing Miami Center
10:20AM 26.3861 -80.7364 324° Northwest 316 364 24,400 1,560 Climbing Miami Center
10:21AM 26.4678 -80.7994 325° Northwest 324 373 26,000 1,500 Climbing Miami Center
10:22AM 26.5456 -80.8578 326° Northwest 336 387 27,400 1,380 Climbing Miami Center
10:23AM 26.6214 -80.9186 324° Northwest 341 392 28,800 1,380 Climbing Miami Center
10:24AM 26.6928 -80.9744 325° Northwest 341 392 30,200 1,380 Climbing Miami Center
10:25AM 26.7683 -81.0375 323° Northwest 341 392 31,600 1,440 Climbing Miami Center
10:26AM 26.8500 -81.1008 325° Northwest 341 392 33,100 1,200 Climbing Miami Center
10:27AM 26.9253 -81.1619 324° Northwest 335 386 34,100 960 Climbing Miami Center
10:28AM 27.0031 -81.2208 326° Northwest 335 386 35,100 960 Climbing Miami Center
10:29AM 27.0783 -81.2794 325° Northwest 335 386 36,100 900 Climbing Miami Center
10:30AM 27.1536 -81.3431 323° Northwest 335 386 37,000 1,020 Climbing Miami Center
10:31AM 27.2292 -81.4019 325° Northwest 335 386 38,200 1,020 Climbing Miami Center
10:32AM 27.3044 -81.4611 325° Northwest 330 380 39,100 900 Climbing Miami Center
10:33AM 27.3756 -81.5200 324° Northwest 325 374 40,000 480 Climbing Miami Center
10:34AM 27.4428 -81.5742 324° Northwest 325 374 40,100 480 Climbing Miami Center
10:36AM 27.5642 -81.6731 324° Northwest 338 389 41,300 720 Climbing Jacksonville Center
10:37AM 27.6397 -81.7308 326° Northwest 333 383 42,100 780 Climbing Jacksonville Center
10:38AM 27.7175 -81.7908 326° Northwest 327 376 42,900 420 Climbing Jacksonville Center
10:39AM 27.7931 -81.8464 327° Northwest 327 376 43,000  Climbing Jacksonville Center
10:40AM 27.8686 -81.9114 323° Northwest 332 382 43,000  Level Jacksonville Center
10:41AM 27.9442 -81.9764 323° Northwest 337 388 43,000  Level Jacksonville Center
10:42AM 28.0178 -82.0417 322° Northwest 337 388 43,000  Level Jacksonville Center
10:43AM 28.0975 -82.1114 322° Northwest 350 403 43,000  Level Jacksonville Center
10:44AM 28.1731 -82.1792 322° Northwest 350 403 43,000  Level Jacksonville Center
10:45AM 28.2464 -82.2542 318° Northwest 350 403 43,000  Level Jacksonville Center
10:46AM 28.3197 -82.3289 318° Northwest 355 409 43,000  Level Jacksonville Center
10:47AM 28.3931 -82.4064 317° Northwest 360 414 43,000  Level Jacksonville Center
10:48AM 28.4664 -82.4817 318° Northwest 360 414 43,000  Level Jacksonville Center
10:49AM 28.5419 -82.5569 319° Northwest 360 414 43,000  Level Jacksonville Center
10:50AM 28.6150 -82.6347 317° Northwest 360 414 43,000  Level Jacksonville Center
10:51AM 28.6883 -82.7103 318° Northwest 360 414 43,000  Level Jacksonville Center
10:52AM 28.7614 -82.7861 318° Northwest 360 414 43,000  Level Jacksonville Center
10:53AM 28.8364 -82.8617 319° Northwest 360 414 43,000  Level Jacksonville Center
10:54AM 28.9094 -82.9375 318° Northwest 360 414 43,000  Level Jacksonville Center
10:55AM 28.9847 -83.0161 318° Northwest 360 414 43,000  Level Jacksonville Center
10:56AM 29.0575 -83.0922 318° Northwest 360 414 43,000  Level Jacksonville Center
10:57AM 29.1306 -83.1708 317° Northwest 360 414 43,000  Level Jacksonville Center
10:58AM 29.2075 -83.2494 318° Northwest 365 420 43,000  Level Jacksonville Center
10:59AM 29.2803 -83.3258 318° Northwest 365 420 43,000  Level Jacksonville Center
11:00AM 29.3553 -83.4025 318° Northwest 365 420 43,000  Level Jacksonville Center
11:01AM 29.4281 -83.4814 317° Northwest 365 420 43,000  Level Jacksonville Center
11:02AM 29.5006 -83.5608 316° Northwest 370 426 43,000  Level Jacksonville Center
11:03AM 29.5753 -83.6375 318° Northwest 370 426 43,000  Level Jacksonville Center
11:04AM 29.6500 -83.7169 317° Northwest 365 420 43,000  Level Jacksonville Center
11:05AM 29.7225 -83.7942 317° Northwest 370 426 43,000  Level Jacksonville Center
11:06AM 29.7950 -83.8714 317° Northwest 370 426 43,000  Level Jacksonville Center
11:07AM 29.8467 -83.9653 302° West 356 410 43,000  Level Jacksonville Center
11:08AM 29.8833 -84.0664 293° West 345 397 43,000  Level Jacksonville Center
11:09AM 29.9239 -84.1700 294° West 345 397 43,000  Level Jacksonville Center
11:10AM 29.9606 -84.2711 293° West 345 397 43,000  Level Jacksonville Center
11:11AM 29.9969 -84.3700 293° West 345 397 43,000  Level Jacksonville Center
11:12AM 30.0353 -84.4736 293° West 345 397 43,000  Level Jacksonville Center
11:13AM 30.0758 -84.5753 295° West 351 404 43,000  Level Jacksonville Center
11:14AM 30.1078 -84.6767 290° West 351 404 43,000  Level Jacksonville Center
11:15AM 30.1481 -84.7806 294° West 351 404 43,000  Level Jacksonville Center
11:16AM 30.1864 -84.8822 294° West 351 404 43,000  Level Jacksonville Center
11:17AM 30.2222 -84.9839 292° West 351 404 43,000  Level Jacksonville Center
11:18AM 30.2622 -85.0858 294° West 356 410 43,000  Level Jacksonville Center
11:19AM 30.2981 -85.1878 292° West 356 410 43,000  Level Jacksonville Center
11:20AM 30.3358 -85.2897 293° West 356 410 43,000  Level Jacksonville Center
11:21AM 30.3736 -85.3942 293° West 356 410 43,000  Level Jacksonville Center
11:22AM 30.4089 -85.4986 291° West 356 410 43,000  Level Jacksonville Center
11:23AM 30.4464 -85.6008 293° West 356 410 43,000  Level Jacksonville Center
11:24AM 30.4800 -85.6958 292° West 356 410 43,000  Level Jacksonville Center
11:25AM 30.5153 -85.7981 292° West 356 410 43,000  Level Jacksonville Center
11:26AM 30.5547 -85.9006 294° West 356 410 43,000  Level Jacksonville Center
11:27AM 30.5897 -86.0056 291° West 356 410 43,000  Level Jacksonville Center
11:28AM 30.6289 -86.1106 293° West 356 410 43,000  Level Jacksonville Center
11:29AM 30.6658 -86.2133 293° West 356 410 43,000  Level Jacksonville Center
11:30AM 30.6986 -86.3158 290° West 356 410 43,000  Level Jacksonville Center
11:31AM 30.7353 -86.4211 292° West 356 410 43,000  Level Jacksonville Center
11:32AM 30.7722 -86.5239 293° West 356 410 43,000  Level Jacksonville Center
11:33AM 30.8067 -86.6269 291° West 356 410 43,000  Level Jacksonville Center
11:34AM 30.8219 -86.7461 279° West 342 394 43,000  Level Jacksonville Center
11:35AM 30.8186 -86.8594 268° West 342 394 43,000  Level Jacksonville Center
11:36AM 30.8056 -87.0453 265° West 344 396 43,000  Level Houston Center
11:37AM 30.7992 -87.1697 267° West 343 395 43,000  Level Houston Center
11:38AM 30.7911 -87.2811 265° West 346 398 43,000  Level Houston Center
11:40AM 30.7861 -87.3917 267° West 345 397 43,000  Level Houston Center
11:41AM 30.7806 -87.5022 267° West 344 396 43,000  Level Houston Center
11:42AM 30.7719 -87.6136 265° West 346 398 43,000  Level Houston Center
11:43AM 30.7650 -87.7425 266° West 343 395 43,000  Level Houston Center
11:44AM 30.7581 -87.8525 266° West 343 395 43,000  Level Houston Center
11:45AM 30.7514 -87.9625 266° West 344 396 43,000  Level Houston Center
11:46AM 30.7428 -88.0722 265° West 342 394 43,000  Level Houston Center
11:47AM 30.7364 -88.1811 266° West 341 392 43,000  Level Houston Center
11:48AM 30.7281 -88.2917 265° West 344 396 43,000  Level Houston Center
11:49AM 30.6975 -88.4053 253° West 344 396 43,000  Level Houston Center
11:50AM 30.6633 -88.5103 249° West 346 398 43,000  Level Houston Center
11:51AM 30.6275 -88.6150 248° West 348 400 43,000  Level Houston Center
11:52AM 30.5842 -88.7408 248° West 349 402 43,000  Level Houston Center
11:53AM 30.5489 -88.8458 249° West 350 403 43,000  Level Houston Center
11:54AM 30.5125 -88.9500 248° West 349 402 43,000  Level Houston Center
11:55AM 30.4736 -89.0656 249° West 350 403 43,000  Level Houston Center
11:56AM 30.4372 -89.1697 248° West 348 400 43,000  Level Houston Center
11:57AM 30.4014 -89.2750 248° West 351 404 43,000  Level Houston Center
11:58AM 30.3653 -89.3792 248° West 349 402 43,000  Level Houston Center
11:59AM 30.3286 -89.4844 248° West 352 405 43,000  Level Houston Center
12:00PM 30.2922 -89.5883 248° West 346 398 43,000  Level Houston Center
12:01PM 30.2503 -89.7017 247° West 354 407 43,000  Level Houston Center
12:02PM 30.2072 -89.8256 248° West 356 410 43,000  Level Houston Center
12:03PM 30.1708 -89.9311 248° West 352 405 43,000  Level Houston Center
12:04PM 30.1339 -90.0367 248° West 353 406 43,000  Level Houston Center
12:05PM 30.0969 -90.1411 248° West 352 405 43,000  Level Houston Center
12:06PM 30.0600 -90.2453 248° West 351 404 43,000  Level Houston Center
12:07PM 30.0225 -90.3506 248° West 353 406 43,000  Level Houston Center
12:09PM 29.9847 -90.4550 247° West 353 406 43,000  Level Houston Center
12:10PM 29.9394 -90.5800 247° West 353 406 43,000  Level Houston Center
12:11PM 29.9025 -90.6850 248° West 354 407 43,000  Level Houston Center
12:12PM 29.8639 -90.7889 247° West 352 405 43,000  Level Houston Center
12:13PM 29.8269 -90.8933 248° West 354 407 43,000  Level Houston Center
12:14PM 29.7881 -90.9972 247° West 353 406 43,000  Level Houston Center
12:15PM 29.7436 -91.1219 248° West 352 405 43,000  Level Houston Center
12:16PM 29.7044 -91.2256 247° West 352 405 43,000  Level Houston Center
12:17PM 29.6669 -91.3303 248° West 353 406 43,000  Level Houston Center
12:18PM 29.6292 -91.4342 247° West 353 406 43,000  Level Houston Center
12:19PM 29.5906 -91.5381 247° West 353 406 43,000  Level Houston Center
12:20PM 29.5522 -91.6406 247° West 352 405 43,000  Level Houston Center
12:21PM 29.5128 -91.7481 247° West 350 403 43,000  Level Houston Center
12:22PM 29.4669 -91.8708 247° West 349 402 43,000  Level Houston Center
12:23PM 29.4286 -91.9733 247° West 351 404 43,000  Level Houston Center
12:24PM 29.3897 -92.0756 246° West 348 400 43,000  Level Houston Center
12:25PM 29.3519 -92.1775 247° West 349 402 43,000  Level Houston Center
12:26PM 29.3139 -92.2789 247° West 347 399 43,000 -660 Level Houston Center
12:27PM 29.2758 -92.3786 246° West 343 395 41,700 -1,800 Descending Houston Center
12:28PM 29.2439 -92.4994 253° West 332 382 39,400 -2,100 Descending Houston Center
12:29PM 29.2461 -92.6039 271° West 329 379 37,400 -1,980 Descending Houston Center
12:30PM 29.2478 -92.7072 271° West 325 374 35,400 -1,800 Descending Houston Center
12:31PM 29.2492 -92.8133 271° West 332 382 33,700 -1,200 Descending Houston Center
12:32PM 29.2506 -92.9200 271° West 335 386 33,000 -360 Descending Houston Center
12:33PM 29.2531 -93.0325 271° West 349 402 33,000  Level Houston Center
12:34PM 29.2547 -93.1681 271° West 354 407 33,000 -540 Level Houston Center
12:35PM 29.2572 -93.2806 271° West 353 406 31,900 -1,500 Descending Houston Center
12:36PM 29.2578 -93.3981 270° West 365 420 29,900 -1,980 Descending Houston Center
12:38PM 29.2594 -93.5206 271° West 381 438 27,900 -1,800 Descending Houston Center
12:39PM 29.2603 -93.6433 270° West 384 442 26,200 -1,680 Descending Houston Center
12:40PM 29.2611 -93.7628 270° West 377 434 24,500 -2,040 Descending Houston Center
12:41PM 29.2633 -93.8767 271° West 350 403 22,000 -2,160 Descending Houston Center
12:42PM 29.2639 -93.9892 270° West 353 406 20,000 -1,860 Descending Houston Center
12:43PM 29.2647 -94.1253 270° West 356 410 18,200 -1,740 Descending Houston Center
12:43PM 29.2661 -94.1667 272° West 351 404 17,700 -1,860 Descending Houston Center
12:44PM 29.2664 -94.2331 270° West 343 395 16,300 -2,340 Descending Houston Center
12:44PM 29.2661 -94.3106 270° West 319 367 14,400 -2,280 Descending Houston Center
12:45PM 29.2669 -94.3317 273° West 317 365 14,000 -1,920 Descending Houston Center
12:45PM 29.2672 -94.4061 270° West 270 311 12,500 -1,680 Descending Houston Center
12:46PM 29.2667 -94.4189 267° West 278 320 12,300 -540 Descending Houston Center
12:47PM 29.2697 -94.4944 273° West 276 318 12,000 -540 Descending Houston Center
12:47PM 29.2764 -94.5058 304° West 278 320 11,800 -1,980 Descending Houston Center
12:48PM 29.3139 -94.5825 299° West 282 325 9,800 -2,220 Descending Houston Center
12:48PM 29.3450 -94.6431 301° West 275 316 8,200 -1,440 Descending Houston Center
12:49PM 29.3594 -94.6728 299° West 274 315 8,000 -240 Descending Houston Center
12:49PM 29.3817 -94.7178 300° West 271 312 8,000  Level Houston Center
12:50PM 29.3964 -94.7469 300° West 269 310 8,000  Level Houston Center
12:51PM 29.4236 -94.8036 299° West 273 314 8,000  Level Houston Center
12:51PM 29.4339 -94.8236 301° West 275 316 8,000 -540 Level Houston Center
12:52PM 29.4656 -94.8894 299° West 278 320 7,400 -900 Descending Houston Center
12:52PM 29.4719 -94.9006 303° West 277 319 7,100 -1,440 Descending Houston Center
12:53PM 29.4994 -94.9597 298° West 272 313 6,100 -1,080 Descending Houston Center
12:53PM 29.5089 -94.9753 305° West 272 313 6,000 -120 Descending Houston Center
12:54PM 29.5386 -95.0389 298° West 275 316 6,000  Level Houston Center
12:54PM 29.5464 -95.0522 304° West 275 316 6,000  Level Houston Center
12:55PM 29.5750 -95.1139 298° West 267 307 6,000  Level Houston Center
12:55PM 29.5883 -95.1400 300° West 262 302 6,000  Level Houston Center
12:56PM 29.5839 -95.1872 264° West 229 264 6,000  Level Houston Center
12:56PM 29.5722 -95.2133 243° Southwest 236 272 6,000  Level Houston Center
12:57PM 29.5500 -95.2514 236° Southwest 211 243 6,000 -600 Level Houston Center
12:57PM 29.5361 -95.2661 223° Southwest 210 242 5,400 -1,560 Descending Houston Center
12:58PM 29.5081 -95.2972 224° Southwest 211 243 4,400 -1,380 Descending Houston Center
12:58PM 29.4944 -95.3122 224° Southwest 207 238 4,000 -1,260 Descending Houston Center
12:59PM 29.4664 -95.3456 226° Southwest 187 215 3,000 -960 Descending Houston Center
12:59PM 29.4597 -95.3592 241° Southwest 210 242 3,000  Level Houston Center
01:00PM 29.4731 -95.3975 292° West 177 204 3,000  Level Houston Center
01:00PM 29.4811 -95.4131 301° West 192 221 3,000  Level Houston Center
01:01PM 29.5103 -95.4122 North 184 212 3,000 -120 Level Houston Center
01:01PM 29.5283 -95.4056 18° North 181 208 2,900 -540 Descending Houston Center
01:02PM 29.5514 -95.3808 43° Northeast 167 192 2,400 -1,020 Descending Houston Center
01:02PM 29.5694 -95.3617 43° Northeast 176 203 1,900 -1,020 Descending Houston Center
01:03PM 29.5878 -95.3406 45° Northeast 165 190 1,400 -780 Descending Houston Center
01:03PM 29.6019 -95.3267 40° Northeast 167 192 1,100 -720 Descending Houston Center
01:04PM 29.6164 -95.3106 44° Northeast 135 155 700 -720 Descending Houston Center
01:04PM 29.6292 -95.2958 45° Northeast 151 174 400 -420 Descending Houston Center
01:05PM 29.6519 -95.2706 44° Northeast 143 165 100 -300 Descending Houston Center